This is the latest recevied weather packets stored in our database for station/object EA2AFZ-W. If no packets are shown the sender has not sent any weather packets the latest 10 day(s).
| Time | Temp. | Humidity | Pressure | Rain* | Wind** | Luminosity | Snow |
|---|---|---|---|---|---|---|---|
| 1788041736 | 20.56° C | 65% | 1019 hPa | 0 mm | - | - | - |
| 1788039934 | 21.11° C | 61% | 1019 hPa | 0 mm | - | - | - |
| 1788038131 | 21.67° C | 60% | 1019 hPa | 0 mm | - | - | - |
| 1788036330 | 22.22° C | 59% | 1020 hPa | 0 mm | - | - | - |
| 1788034528 | 22.78° C | 56% | 1019 hPa | 0 mm | - | - | - |
| 1788032725 | 23.33° C | 64% | 1019 hPa | 0 mm | - | - | - |
| 1788030923 | 23.89° C | 54% | 1019 hPa | 0 mm | - | - | - |
| 1788029121 | 25.56° C | 49% | 1019 hPa | 0 mm | - | - | - |
| 1788027328 | 25.56° C | 46% | 1018 hPa | 0 mm | - | - | - |
| 1788025516 | 26.11° C | 43% | 1018 hPa | 0 mm | - | - | - |
| 1788023714 | 26.67° C | 40% | 1018 hPa | 0 mm | - | - | - |
| 1788021910 | 26.67° C | 37% | 1018 hPa | 0 mm | - | - | - |
| 1788020109 | 27.22° C | 34% | 1017 hPa | 0 mm | - | - | - |
| 1788018307 | 27.78° C | 31% | 1017 hPa | 0 mm | - | - | - |
| 1788016565 | 28.33° C | 30% | 1017 hPa | 0 mm | - | - | - |
| 1788014762 | 28.33° C | 31% | 1017 hPa | 0 mm | - | - | - |
| 1788011157 | 28.89° C | 32% | 1017 hPa | 0 mm | - | - | - |
| 1788009355 | 28.89° C | 31% | 1017 hPa | 0 mm | - | - | - |
| 1788007555 | 28.89° C | 31% | 1017 hPa | 0 mm | - | - | - |
| 1788005750 | 28.33° C | 32% | 1017 hPa | 0 mm | - | - | - |
| 1788003949 | 28.33° C | 30% | 1017 hPa | 0 mm | - | - | - |
| 1788002145 | 27.78° C | 32% | 1018 hPa | 0 mm | - | - | - |
| 1788000344 | 27.22° C | 34% | 1018 hPa | 0 mm | - | - | - |
| 1787998541 | 26.11° C | 39% | 1018 hPa | 0 mm | - | - | - |
| 1787996739 | 24.44° C | 50% | 1018 hPa | 0 mm | - | - | - |
* Rain latest hour (hover to see other rain measurements)
** Current wind speed in m/s (hover to see current wind gust speed)